Poplar, United Kingdom
Current Conditions -  °F | °C
As of 5:20 PM on Monday 22 Dec 2014 (Local Time) from EGLC Reporting Station
Broken Clouds Broken Clouds  
Wind Chill: 57°   Ceiling: 3100
Heat Index: 57°   Visibility: 6mi
Dew Point: 46°   Wind: 18mph
Humidity: 67%   Direction: 250°WSW
Pressure: 30.06"   Gusts: NA
Location:  51.51°N, 0.01°W
Report Text: EGLC 221720Z 25016KT 9999 FEW026 BKN031 14/08 Q1018
Loading
Personal Weather Stations






























Interactive Weather Map New forecast layout! Learn more

10-Day Weather Forecast

Advertisements
Track Severe Weather on mobile